createdAt,value
2017-06-16T00:02:21.762Z,13.53
2017-06-16T00:04:50.419Z,12.60
2017-06-16T00:07:19.606Z,13.93
2017-06-16T00:09:48.235Z,13.17
2017-06-16T00:12:17.044Z,12.57
2017-06-16T00:14:45.493Z,10.47
2017-06-16T00:17:14.057Z,10.63
2017-06-16T00:19:43.397Z,10.37
2017-06-16T00:22:11.999Z,9.83
2017-06-16T00:24:40.469Z,9.87
2017-06-16T00:27:09.625Z,10.50
2017-06-16T00:29:38.868Z,9.40
2017-06-16T00:32:07.652Z,9.80
2017-06-16T00:34:36.113Z,10.20
2017-06-16T00:37:04.783Z,9.67
2017-06-16T00:39:34.084Z,9.87
2017-06-16T00:42:03.535Z,10.77
2017-06-16T00:44:32.017Z,10.63
2017-06-16T00:47:00.842Z,10.87
2017-06-16T00:49:29.380Z,11.73
2017-06-16T00:51:57.824Z,10.60
2017-06-16T00:54:27.750Z,11.97
2017-06-16T00:56:56.355Z,10.70
2017-06-16T00:59:24.900Z,11.73
2017-06-16T01:01:54.396Z,11.83
2017-06-16T01:04:22.902Z,11.17
2017-06-16T01:06:52.540Z,11.80
2017-06-16T01:09:21.227Z,10.00
2017-06-16T01:11:49.782Z,10.40
2017-06-16T01:14:19.113Z,9.40
2017-06-16T01:16:47.744Z,10.97
2017-06-16T01:19:16.201Z,10.70
2017-06-16T01:21:44.685Z,11.20
2017-06-16T01:24:13.422Z,11.03
2017-06-16T01:26:42.661Z,10.37
2017-06-16T01:29:11.750Z,10.47
2017-06-16T01:31:40.541Z,9.37
2017-06-16T01:34:09.337Z,10.27
2017-06-16T01:36:37.806Z,8.63
2017-06-16T01:39:06.297Z,10.37
2017-06-16T01:41:34.824Z,8.47
2017-06-16T01:44:03.458Z,9.80
2017-06-16T01:46:31.936Z,9.37
2017-06-16T01:49:00.409Z,10.70
2017-06-16T01:51:28.902Z,11.20
2017-06-16T01:53:58.215Z,9.63
2017-06-16T01:56:26.716Z,8.90
2017-06-16T01:58:55.195Z,8.90
2017-06-16T02:01:23.641Z,8.60
2017-06-16T02:03:52.164Z,10.27
2017-06-16T02:06:20.636Z,9.30
2017-06-16T02:08:49.625Z,9.23
2017-06-16T02:11:18.088Z,9.30
2017-06-16T02:13:46.536Z,9.53
2017-06-16T02:16:15.417Z,8.77
2017-06-16T02:18:43.861Z,8.93
2017-06-16T02:21:12.393Z,9.67
2017-06-16T02:23:40.846Z,9.47
2017-06-16T02:26:09.938Z,9.90
2017-06-16T02:28:38.602Z,9.20
2017-06-16T02:31:07.053Z,8.30
2017-06-16T02:33:35.519Z,9.20
2017-06-16T02:36:03.990Z,9.63
2017-06-16T02:38:32.792Z,9.17
2017-06-16T02:41:02.138Z,9.17
2017-06-16T02:43:30.649Z,10.23
2017-06-16T02:45:59.319Z,9.70
2017-06-16T02:48:27.885Z,9.10
2017-06-16T02:50:56.354Z,10.40
2017-06-16T02:53:24.861Z,9.57
2017-06-16T02:55:53.377Z,9.50
2017-06-16T02:58:21.893Z,9.73
2017-06-16T03:00:51.093Z,10.30
2017-06-16T03:03:20.049Z,8.60
2017-06-16T03:05:48.474Z,9.57
2017-06-16T03:08:16.941Z,8.83
2017-06-16T03:10:45.690Z,8.40
2017-06-16T03:13:14.257Z,9.23
2017-06-16T03:15:42.737Z,9.70
2017-06-16T03:18:11.216Z,8.80
2017-06-16T03:20:44.209Z,9.83
2017-06-16T03:23:13.068Z,9.70
2017-06-16T03:25:42.609Z,8.70
2017-06-16T03:28:11.193Z,9.47
2017-06-16T03:30:39.693Z,9.17
2017-06-16T03:33:08.248Z,9.10
2017-06-16T03:35:36.706Z,8.60
2017-06-16T03:38:05.890Z,8.60
2017-06-16T03:40:34.490Z,8.87
2017-06-16T03:43:03.689Z,7.87
2017-06-16T03:45:32.141Z,9.27
2017-06-16T03:48:00.937Z,7.80
2017-06-16T03:50:29.454Z,7.93
2017-06-16T03:52:57.911Z,8.87
2017-06-16T03:55:26.373Z,9.30
2017-06-16T03:57:55.097Z,8.90
2017-06-16T04:00:24.328Z,10.57
2017-06-16T04:02:52.867Z,9.83
2017-06-16T04:05:22.082Z,10.30
2017-06-16T04:07:50.869Z,10.00
2017-06-16T04:10:20.542Z,10.43
2017-06-16T04:12:49.116Z,12.10
2017-06-16T04:15:17.576Z,10.90
2017-06-16T04:17:46.040Z,12.40
2017-06-16T04:20:14.692Z,11.43
2017-06-16T04:22:43.194Z,11.97
2017-06-16T04:25:12.545Z,12.33
2017-06-16T04:27:41.184Z,12.97
2017-06-16T04:30:10.912Z,13.77
2017-06-16T04:32:39.381Z,13.60
2017-06-16T04:35:08.599Z,12.37
2017-06-16T04:37:37.161Z,14.50
2017-06-16T04:40:05.867Z,12.90
2017-06-16T04:42:34.481Z,11.53
2017-06-16T04:45:03.070Z,13.20
2017-06-16T04:47:31.834Z,13.20
2017-06-16T04:50:00.365Z,12.83
2017-06-16T04:52:28.810Z,11.17
2017-06-16T04:54:57.741Z,11.77
2017-06-16T04:57:26.222Z,10.00
2017-06-16T04:59:54.705Z,9.00
2017-06-16T05:02:23.225Z,10.10
2017-06-16T05:04:51.836Z,7.93
2017-06-16T05:07:20.845Z,9.00
2017-06-16T05:09:49.574Z,8.57
2017-06-16T05:12:18.048Z,7.40
2017-06-16T05:17:15.130Z,7.75
2017-06-16T05:19:44.437Z,9.27
2017-06-16T05:22:18.178Z,8.63
2017-06-16T05:24:46.644Z,9.83
2017-06-16T05:27:15.818Z,8.83
2017-06-16T05:29:45.072Z,8.90
2017-06-16T05:32:13.737Z,7.77
2017-06-16T05:34:42.341Z,7.83
2017-06-16T05:37:11.008Z,8.70
2017-06-16T05:39:39.487Z,8.67
2017-06-16T05:42:08.120Z,8.80
2017-06-16T05:44:36.582Z,9.40
2017-06-16T05:47:05.042Z,8.60
2017-06-16T05:49:33.565Z,8.23
2017-06-16T05:52:02.477Z,8.03
2017-06-16T05:54:31.809Z,7.77
2017-06-16T05:57:00.393Z,7.40
2017-06-16T05:59:28.840Z,6.43
2017-06-16T06:01:57.603Z,6.30
2017-06-16T06:04:26.093Z,6.63
2017-06-16T06:06:54.659Z,5.50
2017-06-16T06:09:23.340Z,6.73
2017-06-16T06:11:51.808Z,4.87
2017-06-16T06:14:20.277Z,5.37
2017-06-16T06:16:49.350Z,5.83
2017-06-16T06:19:18.654Z,4.83
2017-06-16T06:21:47.890Z,4.30
2017-06-16T06:24:16.366Z,4.40
2017-06-16T06:26:44.906Z,4.10
2017-06-16T06:29:13.443Z,5.27
2017-06-16T06:31:42.583Z,5.07
2017-06-16T06:34:11.054Z,4.23
2017-06-16T06:36:40.055Z,4.80
2017-06-16T06:39:08.536Z,4.57
2017-06-16T06:41:37.045Z,4.47
2017-06-16T06:44:06.525Z,4.43
2017-06-16T06:46:35.030Z,3.90
2017-06-16T06:49:04.272Z,4.60
2017-06-16T06:51:32.737Z,4.00
2017-06-16T06:54:01.197Z,4.20
2017-06-16T06:56:29.737Z,3.40
2017-06-16T06:58:58.296Z,2.87
2017-06-16T07:01:27.118Z,3.50
2017-06-16T07:03:55.832Z,3.20
2017-06-16T07:06:24.414Z,2.87
2017-06-16T07:08:52.864Z,3.77
2017-06-16T07:11:21.340Z,2.83
2017-06-16T07:13:49.956Z,2.97
2017-06-16T07:16:18.641Z,3.00
2017-06-16T07:18:47.890Z,4.00
2017-06-16T07:21:16.973Z,3.30
2017-06-16T07:23:45.416Z,3.00
2017-06-16T07:26:14.677Z,2.87
2017-06-16T07:28:43.222Z,2.60
2017-06-16T07:31:11.910Z,2.00
2017-06-16T07:33:40.498Z,2.70
2017-06-16T07:36:09.703Z,2.33
2017-06-16T07:38:38.254Z,2.70
2017-06-16T07:41:07.233Z,2.47
2017-06-16T07:43:35.701Z,2.03
2017-06-16T07:46:04.277Z,2.10
2017-06-16T07:48:37.235Z,2.03
2017-06-16T07:51:05.710Z,1.90
2017-06-16T07:53:34.665Z,1.90
2017-06-16T07:56:03.129Z,1.50
2017-06-16T07:58:31.573Z,1.90
2017-06-16T08:01:00.872Z,2.00
2017-06-16T08:03:30.741Z,2.20
2017-06-16T08:05:59.217Z,1.70
2017-06-16T08:08:52.310Z,2.20
2017-06-16T08:11:21.591Z,1.83
2017-06-16T08:13:50.057Z,2.70
2017-06-16T08:16:18.621Z,2.30
2017-06-16T08:18:47.846Z,2.47
2017-06-16T08:21:16.300Z,1.93
2017-06-16T08:23:44.780Z,1.70
2017-06-16T08:26:13.564Z,1.60
2017-06-16T08:28:42.436Z,1.60
2017-06-16T08:31:11.668Z,1.40
2017-06-16T08:33:40.674Z,2.03
2017-06-16T08:36:09.305Z,1.93
2017-06-16T08:38:37.801Z,1.80
2017-06-16T08:41:07.109Z,1.60
2017-06-16T08:43:36.321Z,1.87
2017-06-16T08:46:05.091Z,2.73
2017-06-16T08:48:35.020Z,1.80
2017-06-16T08:51:03.476Z,2.40
2017-06-16T08:53:31.934Z,2.50
2017-06-16T08:56:00.548Z,2.40
2017-06-16T08:58:29.143Z,2.23
2017-06-16T09:00:58.684Z,2.00
2017-06-16T09:03:27.185Z,1.90
2017-06-16T09:05:56.055Z,2.00
2017-06-16T09:08:24.873Z,1.70
2017-06-16T09:10:53.371Z,1.40
2017-06-16T09:13:21.856Z,1.47
2017-06-16T09:15:50.354Z,1.87
2017-06-16T09:18:19.524Z,1.67
2017-06-16T09:20:48.300Z,2.73
2017-06-16T09:23:16.834Z,2.47
2017-06-16T09:25:46.493Z,2.30
2017-06-16T09:28:15.849Z,3.43
2017-06-16T09:30:44.505Z,2.30
2017-06-16T09:33:12.963Z,1.80
2017-06-16T09:35:41.433Z,1.70
2017-06-16T09:38:10.177Z,2.30
2017-06-16T09:40:39.425Z,2.40
2017-06-16T09:43:07.881Z,2.47
2017-06-16T09:45:36.354Z,2.43
2017-06-16T09:48:04.797Z,2.27
2017-06-16T09:50:33.592Z,2.20
2017-06-16T09:53:02.641Z,2.00
2017-06-16T09:55:31.096Z,1.97
2017-06-16T09:57:59.578Z,2.00
2017-06-16T10:00:28.289Z,2.23
2017-06-16T10:02:56.765Z,1.77
2017-06-16T10:05:25.373Z,2.20
2017-06-16T10:07:53.860Z,2.00
2017-06-16T10:10:22.668Z,2.80
2017-06-16T10:12:51.134Z,3.40
2017-06-16T10:15:21.803Z,2.73
2017-06-16T10:17:50.404Z,3.20
2017-06-16T10:20:20.108Z,2.50
2017-06-16T10:22:49.371Z,2.37
2017-06-16T10:25:17.827Z,3.03
2017-06-16T10:27:46.406Z,3.00
2017-06-16T10:30:14.882Z,2.17
2017-06-16T10:32:43.886Z,2.20
2017-06-16T10:35:12.377Z,1.37
2017-06-16T10:37:41.104Z,1.87
2017-06-16T10:40:10.612Z,1.47
2017-06-16T10:42:39.074Z,1.57
2017-06-16T10:45:07.537Z,1.17
2017-06-16T10:47:36.072Z,1.43
2017-06-16T10:50:05.286Z,1.47
2017-06-16T10:52:34.410Z,1.37
2017-06-16T10:55:02.881Z,1.23
2017-06-16T10:57:31.349Z,1.50
2017-06-16T10:59:59.857Z,1.53
2017-06-16T11:02:28.369Z,1.20
2017-06-16T11:04:56.829Z,1.63
2017-06-16T11:07:25.350Z,1.57
2017-06-16T11:09:53.817Z,1.40
2017-06-16T11:12:22.285Z,1.60
2017-06-16T11:19:47.010Z,1.43
2017-06-16T11:22:15.475Z,1.30
2017-06-16T11:24:44.120Z,1.17
2017-06-16T11:27:12.801Z,1.50
2017-06-16T11:29:41.341Z,1.20
2017-06-16T11:32:10.098Z,1.70
2017-06-16T11:34:39.348Z,1.00
2017-06-16T11:37:07.788Z,1.37
2017-06-16T11:39:36.457Z,1.20
2017-06-16T11:42:05.228Z,1.30
2017-06-16T11:44:34.799Z,1.63
2017-06-16T11:47:04.142Z,1.30
2017-06-16T11:49:35.242Z,1.27
2017-06-16T11:52:03.947Z,1.37
2017-06-16T11:54:33.100Z,1.33
2017-06-16T11:57:02.229Z,1.17
2017-06-16T11:59:32.358Z,1.00
2017-06-16T12:02:04.858Z,1.00
2017-06-16T12:04:33.576Z,1.50
2017-06-16T12:07:09.153Z,1.23
2017-06-16T12:09:38.670Z,1.30
2017-06-16T12:12:07.503Z,1.80
2017-06-16T12:14:36.061Z,1.43
2017-06-16T12:17:04.802Z,2.00
2017-06-16T12:19:33.402Z,1.90
2017-06-16T12:22:01.985Z,1.67
2017-06-16T12:24:30.549Z,1.60
2017-06-16T12:27:00.800Z,2.00
2017-06-16T12:29:30.105Z,1.47
2017-06-16T12:32:03.654Z,1.40
2017-06-16T12:34:34.945Z,0.90
2017-06-16T12:37:03.810Z,1.37
2017-06-16T12:39:34.307Z,1.30
2017-06-16T12:42:04.013Z,1.70
2017-06-16T12:44:35.229Z,1.60
2017-06-16T12:48:07.462Z,1.57
2017-06-16T12:50:36.967Z,1.57
2017-06-16T12:53:06.859Z,1.47
2017-06-16T12:55:35.925Z,1.90
2017-06-16T12:58:07.267Z,1.70
2017-06-16T13:10:37.033Z,1.80
2017-06-16T13:13:12.864Z,1.90
2017-06-16T13:15:50.766Z,2.00
2017-06-16T13:18:20.397Z,1.70
2017-06-16T13:20:51.935Z,1.60
2017-06-16T13:23:22.875Z,2.03
2017-06-16T13:26:00.000Z,3.10
2017-06-16T13:28:34.568Z,2.17
2017-06-16T13:31:06.915Z,2.43
2017-06-16T13:33:36.444Z,2.40
2017-06-16T13:36:08.492Z,2.47
2017-06-16T13:38:45.713Z,1.80
2017-06-16T13:41:16.061Z,2.13
2017-06-16T13:43:46.341Z,2.10
2017-06-16T13:46:15.311Z,2.17
2017-06-16T13:48:48.482Z,2.20
2017-06-16T13:51:20.167Z,2.77
2017-06-16T13:53:49.993Z,1.90
2017-06-16T13:56:21.348Z,2.00
2017-06-16T13:58:49.996Z,1.70
2017-06-16T14:01:18.545Z,1.93
2017-06-16T14:03:47.587Z,2.00
2017-06-16T14:06:16.434Z,1.53
2017-06-16T14:08:46.909Z,1.60
2017-06-16T14:11:15.522Z,1.30
2017-06-16T14:13:44.168Z,1.73
2017-06-16T14:16:12.721Z,1.50
2017-06-16T14:18:41.276Z,2.13
2017-06-16T14:21:15.829Z,2.07
2017-06-16T14:23:44.393Z,2.23
2017-06-16T14:26:13.017Z,1.90
2017-06-16T14:28:41.759Z,2.00
2017-06-16T14:31:10.705Z,2.57
2017-06-16T14:33:39.600Z,2.07
2017-06-16T14:36:08.437Z,2.13
2017-06-16T14:38:36.893Z,1.60
2017-06-16T14:41:05.632Z,1.97
2017-06-16T14:43:35.126Z,1.80
2017-06-16T14:46:04.425Z,2.50
2017-06-16T14:48:34.197Z,2.30
2017-06-16T14:51:03.249Z,2.73
2017-06-16T14:53:32.485Z,3.07
2017-06-16T14:56:01.325Z,3.37
2017-06-16T14:58:29.796Z,3.07
2017-06-16T15:00:58.259Z,2.90
2017-06-16T15:03:26.896Z,2.63
2017-06-16T15:05:59.404Z,2.90
2017-06-16T15:08:28.096Z,2.63
2017-06-16T15:10:56.638Z,2.60
2017-06-16T15:13:25.974Z,2.70
2017-06-16T15:15:54.601Z,3.03
2017-06-16T15:18:23.347Z,3.23
2017-06-16T15:20:56.357Z,2.90
2017-06-16T15:23:29.541Z,3.60
2017-06-16T15:26:00.225Z,4.07
2017-06-16T15:28:30.117Z,3.30
2017-06-16T15:30:59.215Z,2.90
2017-06-16T15:33:27.985Z,3.60
2017-06-16T15:35:56.705Z,4.00
2017-06-16T15:38:25.764Z,3.07
2017-06-16T15:40:54.478Z,2.70
2017-06-16T15:43:22.981Z,2.97
2017-06-16T15:45:51.778Z,2.63
2017-06-16T15:48:22.088Z,2.90
2017-06-16T15:50:51.418Z,3.43
2017-06-16T15:53:20.108Z,3.83
2017-06-16T15:55:48.578Z,3.07
2017-06-16T15:58:17.033Z,3.00
2017-06-16T16:00:45.828Z,3.97
2017-06-16T16:03:15.133Z,3.30
2017-06-16T16:05:45.038Z,3.30
2017-06-16T16:08:14.114Z,3.20
2017-06-16T16:10:42.629Z,3.07
2017-06-16T16:13:11.938Z,3.67
2017-06-16T16:15:41.182Z,3.17
2017-06-16T16:18:10.119Z,3.20
2017-06-16T16:20:39.332Z,3.00
2017-06-16T16:23:08.530Z,3.50
2017-06-16T16:25:38.458Z,3.43
2017-06-16T16:28:06.949Z,2.97
2017-06-16T16:30:35.433Z,3.23
2017-06-16T16:33:04.101Z,3.00
2017-06-16T16:35:34.504Z,3.50
2017-06-16T16:38:03.313Z,3.70
2017-06-16T16:40:32.617Z,4.10
2017-06-16T16:43:02.456Z,3.40
2017-06-16T16:45:31.768Z,2.87
2017-06-16T16:48:02.464Z,3.17
2017-06-16T16:50:31.194Z,3.00
2017-06-16T16:53:00.652Z,3.17
2017-06-16T16:55:32.353Z,2.97
2017-06-16T16:58:01.987Z,2.80
2017-06-16T17:00:30.462Z,4.03
2017-06-16T17:02:58.968Z,3.03
2017-06-16T17:05:27.543Z,3.20
2017-06-16T17:07:58.831Z,2.83
2017-06-16T17:10:27.675Z,3.10
2017-06-16T17:12:57.089Z,3.00
2017-06-16T17:15:25.536Z,3.77
2017-06-16T17:17:54.099Z,3.13
2017-06-16T17:20:22.619Z,4.17
2017-06-16T17:22:51.316Z,3.90
2017-06-16T17:25:19.817Z,3.67
2017-06-16T17:27:54.953Z,2.63
2017-06-16T17:30:23.517Z,2.93
2017-06-16T17:32:52.811Z,2.90
2017-06-16T17:35:21.298Z,3.00
2017-06-16T17:37:50.262Z,4.33
2017-06-16T17:40:18.774Z,3.10
2017-06-16T17:42:47.281Z,2.60
2017-06-16T17:45:15.791Z,3.27
2017-06-16T17:47:44.428Z,4.03
2017-06-16T17:50:12.905Z,3.10
2017-06-16T17:52:41.778Z,3.27
2017-06-16T17:55:10.389Z,3.70
2017-06-16T17:57:38.895Z,3.77
2017-06-16T18:00:07.357Z,3.13
2017-06-16T18:02:36.037Z,3.47
2017-06-16T18:05:04.655Z,3.57
2017-06-16T18:07:33.142Z,3.30
2017-06-16T18:10:02.402Z,4.30
2017-06-16T18:12:32.382Z,3.70
2017-06-16T18:15:02.401Z,3.00
2017-06-16T18:17:31.474Z,3.40
2017-06-16T18:19:59.930Z,3.30
2017-06-16T18:22:30.148Z,3.80
2017-06-16T18:24:58.654Z,3.10
2017-06-16T18:27:27.128Z,2.93
2017-06-16T18:29:55.591Z,3.10
2017-06-16T18:32:24.126Z,3.80
2017-06-16T18:34:53.345Z,3.77
2017-06-16T18:37:21.908Z,3.67
2017-06-16T18:39:51.766Z,3.93
2017-06-16T18:42:20.517Z,3.40
2017-06-16T18:44:49.233Z,4.20
2017-06-16T18:47:17.729Z,3.70
2017-06-16T18:49:47.083Z,3.50
2017-06-16T18:52:15.567Z,3.60
2017-06-16T18:54:44.603Z,3.27
2017-06-16T18:57:13.248Z,3.67
2017-06-16T18:59:43.150Z,3.53
2017-06-16T19:02:11.785Z,3.80
2017-06-16T19:07:40.354Z,3.53
2017-06-16T19:10:09.789Z,3.50
2017-06-16T19:12:38.752Z,3.37
2017-06-16T19:15:08.260Z,2.77
2017-06-16T19:17:38.337Z,4.00
2017-06-16T19:20:07.075Z,3.83
2017-06-16T19:22:35.685Z,4.03
2017-06-16T19:25:04.851Z,3.90
2017-06-16T19:27:34.171Z,3.20
2017-06-16T19:30:02.787Z,3.10
2017-06-16T19:32:31.339Z,3.03
2017-06-16T19:35:00.266Z,3.50
2017-06-16T19:37:29.126Z,3.60
2017-06-16T19:39:57.794Z,4.53
2017-06-16T19:42:27.097Z,3.00
2017-06-16T19:44:56.374Z,4.50
2017-06-16T19:47:25.014Z,3.50
2017-06-16T19:49:53.551Z,3.13
2017-06-16T19:52:22.042Z,3.77
2017-06-16T19:54:51.323Z,3.60
2017-06-16T19:57:20.860Z,4.33
2017-06-16T19:59:49.663Z,3.50
2017-06-16T20:02:18.332Z,3.40
2017-06-16T20:04:48.247Z,3.57
2017-06-16T20:07:17.766Z,4.00
2017-06-16T20:09:46.394Z,2.93
2017-06-16T20:12:15.129Z,2.90
2017-06-16T20:14:44.622Z,3.50
2017-06-16T20:17:13.253Z,2.70
2017-06-16T20:19:41.804Z,5.40
2017-06-16T20:22:11.073Z,3.77
2017-06-16T20:24:40.138Z,4.03
2017-06-16T20:27:08.678Z,3.20
2017-06-16T20:29:39.280Z,3.20
2017-06-16T20:32:27.175Z,3.03
2017-06-16T20:34:56.662Z,2.77
2017-06-16T20:37:25.961Z,3.23
2017-06-16T20:40:01.063Z,3.47
2017-06-16T20:42:30.907Z,4.00
2017-06-16T20:45:00.519Z,3.47
2017-06-16T20:47:30.505Z,2.87
2017-06-16T20:49:59.279Z,2.47
2017-06-16T20:52:27.918Z,3.20
2017-06-16T20:55:00.296Z,2.77
2017-06-16T20:57:28.852Z,2.70
2017-06-16T20:59:58.282Z,2.70
2017-06-16T21:02:26.834Z,2.60
2017-06-16T21:04:56.019Z,3.33
2017-06-16T21:07:24.834Z,3.50
2017-06-16T21:09:53.538Z,2.80
2017-06-16T21:12:23.044Z,4.00
2017-06-16T21:14:52.291Z,3.53
2017-06-16T21:17:21.033Z,4.00
2017-06-16T21:19:50.322Z,3.40
2017-06-16T21:22:24.642Z,3.27
2017-06-16T21:24:53.854Z,2.83
2017-06-16T21:27:23.204Z,3.57
2017-06-16T21:29:51.871Z,3.83
2017-06-16T21:32:20.529Z,3.47
2017-06-16T21:34:50.290Z,3.23
2017-06-16T21:37:18.925Z,4.33
2017-06-16T21:39:50.660Z,2.93
2017-06-16T21:42:19.350Z,3.87
2017-06-16T21:44:48.489Z,4.10
2017-06-16T21:47:17.028Z,4.00
2017-06-16T21:49:45.821Z,2.70
2017-06-16T21:52:14.538Z,3.30
2017-06-16T21:54:43.812Z,2.80
2017-06-16T21:57:12.334Z,2.93
2017-06-16T21:59:40.846Z,2.90
2017-06-16T22:02:09.617Z,3.30
2017-06-16T22:04:38.306Z,3.17
2017-06-16T22:07:07.405Z,3.10
2017-06-16T22:09:35.921Z,3.40
2017-06-16T22:12:04.739Z,3.53
2017-06-16T22:14:33.945Z,3.47
2017-06-16T22:17:04.365Z,2.70
2017-06-16T22:19:32.957Z,3.63
2017-06-16T22:22:02.532Z,3.00
2017-06-16T22:24:31.431Z,3.00
2017-06-16T22:26:59.939Z,3.87
2017-06-16T22:29:28.470Z,3.00
2017-06-16T22:31:57.165Z,3.37
2017-06-16T22:34:26.299Z,3.90
2017-06-16T22:36:55.885Z,3.10
2017-06-16T22:39:24.709Z,2.97
2017-06-16T22:41:54.038Z,3.20
2017-06-16T22:44:22.841Z,3.03
2017-06-16T22:46:51.751Z,3.50
2017-06-16T22:49:20.414Z,3.43
2017-06-16T22:51:49.019Z,3.13
2017-06-16T22:54:17.598Z,2.70
2017-06-16T22:56:46.166Z,4.17
2017-06-16T22:59:15.549Z,3.93
2017-06-16T23:01:44.122Z,3.80
2017-06-16T23:04:13.464Z,3.90
2017-06-16T23:06:42.042Z,3.60
2017-06-16T23:09:11.205Z,3.60
2017-06-16T23:11:40.660Z,3.60
2017-06-16T23:14:12.564Z,2.80
2017-06-16T23:16:42.767Z,3.10
2017-06-16T23:19:11.282Z,3.03
2017-06-16T23:21:40.534Z,3.67
2017-06-16T23:24:09.270Z,3.17
2017-06-16T23:26:38.980Z,3.43
2017-06-16T23:29:09.336Z,3.37
2017-06-16T23:31:37.969Z,3.60
2017-06-16T23:34:06.643Z,3.10
2017-06-16T23:36:35.606Z,3.30
2017-06-16T23:39:04.443Z,2.97
2017-06-16T23:41:33.185Z,3.10
2017-06-16T23:44:01.829Z,2.93
2017-06-16T23:46:31.142Z,3.10
2017-06-16T23:49:00.776Z,3.20
2017-06-16T23:51:29.285Z,3.83
2017-06-16T23:53:58.189Z,3.20
2017-06-16T23:56:26.911Z,3.60
2017-06-16T23:58:56.145Z,3.53
